Time;durP1;ratioP1;P1;durP2;ratioP2;P2;SDS_P1;SDS_P2;PMS_P1;PMS_P2;Temp;Humidity;BMP_temperature;BMP_pressure;BME280_temperature;BME280_humidity;BME280_pressure;Samples;Min_cycle;Max_cycle;Signal;HPM_P1;HPM_P2
2022/11/22 00:00:30;;;;;;;66.18;26.95;;;;;;;;;;5048067;28;20040;-67
2022/11/22 00:02:56;;;;;;;64.57;25.48;;;;;;;;;;5051067;28;20449;-67
2022/11/22 00:05:22;;;;;;;66.53;26.77;;;;;;;;;;5046326;28;20763;-67
2022/11/22 00:07:49;;;;;;;69.05;27.75;;;;;;;;;;5046909;28;20054;-67
2022/11/22 00:10:15;;;;;;;60.15;24.63;;;;;;;;;;5069222;28;20036;-67
2022/11/22 00:12:41;;;;;;;53.65;24.35;;;;;;;;;;5046579;28;20076;-67
2022/11/22 00:15:08;;;;;;;68.25;25.58;;;;;;;;;;5046330;28;20055;-67
2022/11/22 00:17:34;;;;;;;65.25;24.27;;;;;;;;;;5050685;28;20044;-68
2022/11/22 00:20:00;;;;;;;60.58;24.67;;;;;;;;;;5067677;28;20068;-67
2022/11/22 00:22:26;;;;;;;59.60;23.83;;;;;;;;;;5073029;28;20040;-67
2022/11/22 00:24:53;;;;;;;56.42;23.75;;;;;;;;;;5070361;28;20787;-67
2022/11/22 00:27:19;;;;;;;59.67;24.40;;;;;;;;;;5067414;28;20087;-67
2022/11/22 00:29:45;;;;;;;60.15;23.90;;;;;;;;;;5067926;28;20130;-67
2022/11/22 00:32:12;;;;;;;62.50;23.95;;;;;;;;;;5072025;28;20438;-67
2022/11/22 00:34:38;;;;;;;51.47;22.63;;;;;;;;;;5066324;28;20040;-67
2022/11/22 00:37:04;;;;;;;56.05;23.67;;;;;;;;;;5065626;28;20345;-68
2022/11/22 00:39:30;;;;;;;55.25;24.50;;;;;;;;;;5065778;28;20437;-67
2022/11/22 00:41:56;;;;;;;67.57;25.00;;;;;;;;;;5069520;28;20491;-67
2022/11/22 00:44:22;;;;;;;58.90;24.63;;;;;;;;;;5070006;28;20541;-67
2022/11/22 00:46:48;;;;;;;57.05;23.42;;;;;;;;;;5069820;28;20051;-67
2022/11/22 00:49:15;;;;;;;56.60;22.88;;;;;;;;;;5049200;28;21727;-67
2022/11/22 00:51:41;;;;;;;52.78;22.38;;;;;;;;;;5049987;28;20052;-67
2022/11/22 00:54:07;;;;;;;55.22;23.40;;;;;;;;;;5046847;28;20515;-67
2022/11/22 00:56:34;;;;;;;49.15;20.40;;;;;;;;;;5065864;28;20064;-67
2022/11/22 00:59:01;;;;;;;55.05;22.30;;;;;;;;;;5048245;28;20471;-67
2022/11/22 01:01:27;;;;;;;47.65;21.55;;;;;;;;;;5050982;28;20131;-67
2022/11/22 01:03:53;;;;;;;42.65;20.60;;;;;;;;;;5049881;28;20483;-68
2022/11/22 01:06:19;;;;;;;51.60;20.75;;;;;;;;;;5069528;28;20063;-67
2022/11/22 01:08:45;;;;;;;47.30;21.67;;;;;;;;;;5069589;28;20055;-67
2022/11/22 01:11:13;;;;;;;44.08;20.23;;;;;;;;;;5067353;28;20060;-67
2022/11/22 01:13:39;;;;;;;38.85;18.83;;;;;;;;;;5069839;28;20438;-68
2022/11/22 01:16:06;;;;;;;41.17;18.58;;;;;;;;;;5049889;28;20488;-67
2022/11/22 01:18:33;;;;;;;51.22;21.17;;;;;;;;;;5049694;28;20051;-67
2022/11/22 01:20:59;;;;;;;39.30;18.63;;;;;;;;;;5051705;28;20162;-67
2022/11/22 01:23:26;;;;;;;41.47;18.92;;;;;;;;;;5050824;28;20032;-67
2022/11/22 01:25:52;;;;;;;38.55;19.50;;;;;;;;;;5050710;28;20407;-67
2022/11/22 01:28:18;;;;;;;42.58;19.80;;;;;;;;;;5048718;28;20044;-67
2022/11/22 01:30:44;;;;;;;40.35;19.42;;;;;;;;;;5052267;28;20059;-67
2022/11/22 01:33:11;;;;;;;39.85;19.50;;;;;;;;;;5072934;28;20380;-67
2022/11/22 01:35:37;;;;;;;42.90;20.42;;;;;;;;;;5070620;28;20063;-67
2022/11/22 01:38:03;;;;;;;37.85;19.58;;;;;;;;;;5050031;28;20056;-67
2022/11/22 01:40:29;;;;;;;46.28;19.85;;;;;;;;;;5069558;28;20044;-67
2022/11/22 01:42:57;;;;;;;40.42;18.98;;;;;;;;;;5070771;28;20046;-67
2022/11/22 01:45:29;;;;;;;42.65;19.65;;;;;;;;;;5069149;28;20403;-67
2022/11/22 01:48:03;;;;;;;53.28;21.45;;;;;;;;;;5069584;28;20044;-67
2022/11/22 01:50:30;;;;;;;41.58;19.15;;;;;;;;;;5068882;28;20060;-67
2022/11/22 01:52:59;;;;;;;44.22;20.13;;;;;;;;;;5066999;28;20058;-67
2022/11/22 01:55:25;;;;;;;39.72;19.80;;;;;;;;;;5067628;28;20491;-67
2022/11/22 01:57:52;;;;;;;41.28;20.65;;;;;;;;;;5069228;28;20044;-68
2022/11/22 02:00:18;;;;;;;43.55;20.08;;;;;;;;;;5053378;28;20048;-67
2022/11/22 02:02:46;;;;;;;48.13;21.98;;;;;;;;;;5065493;28;20043;-67
2022/11/22 02:05:16;;;;;;;45.67;21.10;;;;;;;;;;5064444;28;21725;-67
2022/11/22 02:07:49;;;;;;;45.15;20.30;;;;;;;;;;5065579;28;20072;-67
2022/11/22 02:10:17;;;;;;;43.40;20.25;;;;;;;;;;5073255;28;20484;-67
2022/11/22 02:12:43;;;;;;;47.42;20.95;;;;;;;;;;5049769;28;20094;-67
2022/11/22 02:15:10;;;;;;;48.75;21.17;;;;;;;;;;5047210;28;20043;-67
2022/11/22 02:17:36;;;;;;;45.00;20.40;;;;;;;;;;5051941;28;20094;-67
2022/11/22 02:20:03;;;;;;;48.20;22.42;;;;;;;;;;5048574;28;20394;-67
2022/11/22 02:22:30;;;;;;;48.67;21.23;;;;;;;;;;5049612;28;20048;-68
2022/11/22 02:25:01;;;;;;;44.33;21.90;;;;;;;;;;5070524;28;20119;-67
2022/11/22 02:27:28;;;;;;;44.00;20.88;;;;;;;;;;5067696;28;20427;-67
2022/11/22 02:29:54;;;;;;;47.30;23.55;;;;;;;;;;5066098;28;20044;-67
2022/11/22 02:32:20;;;;;;;42.55;21.00;;;;;;;;;;5069321;28;20042;-67
2022/11/22 02:34:48;;;;;;;43.83;22.45;;;;;;;;;;5048836;28;20106;-67
2022/11/22 02:37:15;;;;;;;43.78;21.05;;;;;;;;;;5050421;28;20036;-67
2022/11/22 02:39:44;;;;;;;42.95;20.73;;;;;;;;;;5047578;28;20048;-67
2022/11/22 02:42:10;;;;;;;47.72;21.27;;;;;;;;;;5066878;28;20040;-67
2022/11/22 02:44:37;;;;;;;46.25;21.27;;;;;;;;;;5070843;28;20209;-67
2022/11/22 02:47:03;;;;;;;43.78;22.25;;;;;;;;;;5069059;28;20120;-67
2022/11/22 02:49:30;;;;;;;47.22;21.85;;;;;;;;;;5046591;28;20052;-68
2022/11/22 02:51:56;;;;;;;45.92;21.90;;;;;;;;;;5066430;28;20055;-67
2022/11/22 02:54:22;;;;;;;43.05;22.55;;;;;;;;;;5068475;28;20075;-67
2022/11/22 02:56:48;;;;;;;43.55;21.73;;;;;;;;;;5049084;28;20044;-67
2022/11/22 02:59:14;;;;;;;44.67;21.52;;;;;;;;;;5066693;28;20135;-67
2022/11/22 03:01:41;;;;;;;51.35;23.77;;;;;;;;;;5050105;28;20220;-67
2022/11/22 03:04:07;;;;;;;51.10;23.42;;;;;;;;;;5065121;28;20052;-67
2022/11/22 03:06:33;;;;;;;50.03;23.85;;;;;;;;;;5047901;28;20058;-67
2022/11/22 03:09:00;;;;;;;50.38;24.08;;;;;;;;;;5049578;28;20127;-67
2022/11/22 03:11:26;;;;;;;49.70;22.55;;;;;;;;;;5066373;28;20072;-67
2022/11/22 03:13:52;;;;;;;47.33;23.80;;;;;;;;;;5051674;28;20465;-67
2022/11/22 03:16:18;;;;;;;47.65;23.08;;;;;;;;;;5065578;28;20379;-67
2022/11/22 03:18:44;;;;;;;42.97;22.45;;;;;;;;;;5068147;28;20131;-68
2022/11/22 03:21:11;;;;;;;47.30;22.88;;;;;;;;;;5053869;28;20040;-67
2022/11/22 03:23:37;;;;;;;48.50;22.67;;;;;;;;;;5068508;28;20132;-67
2022/11/22 03:26:08;;;;;;;48.78;22.67;;;;;;;;;;5049025;28;20063;-67
2022/11/22 03:28:34;;;;;;;44.75;21.98;;;;;;;;;;5048018;28;20041;-67
2022/11/22 03:31:00;;;;;;;59.38;24.73;;;;;;;;;;5066795;28;20055;-67
2022/11/22 03:33:26;;;;;;;43.63;21.83;;;;;;;;;;5067708;28;20064;-67
2022/11/22 03:35:57;;;;;;;53.63;24.05;;;;;;;;;;5065098;28;20045;-67
2022/11/22 03:38:23;;;;;;;48.95;23.48;;;;;;;;;;5067108;28;20037;-67
2022/11/22 03:40:49;;;;;;;46.42;22.38;;;;;;;;;;5066990;28;20076;-67
2022/11/22 03:43:15;;;;;;;50.22;23.42;;;;;;;;;;5067241;28;20052;-67
2022/11/22 03:45:47;;;;;;;56.13;23.63;;;;;;;;;;5065079;28;20054;-66
2022/11/22 03:48:14;;;;;;;50.80;24.40;;;;;;;;;;5066143;28;20048;-67
2022/11/22 03:50:40;;;;;;;46.17;24.20;;;;;;;;;;5068554;28;20067;-67
2022/11/22 03:53:06;;;;;;;47.90;21.58;;;;;;;;;;5045740;28;20079;-67
2022/11/22 03:55:32;;;;;;;54.85;25.83;;;;;;;;;;5052324;28;20389;-67
2022/11/22 03:57:58;;;;;;;47.65;25.02;;;;;;;;;;5056372;28;20439;-67
2022/11/22 04:00:25;;;;;;;44.38;23.25;;;;;;;;;;5050134;28;20071;-68
2022/11/22 04:02:51;;;;;;;46.22;22.92;;;;;;;;;;5072673;28;20044;-67
2022/11/22 04:05:17;;;;;;;46.67;24.30;;;;;;;;;;5051106;28;20036;-67
2022/11/22 04:07:43;;;;;;;52.60;23.63;;;;;;;;;;5068669;28;20147;-67
2022/11/22 04:10:09;;;;;;;46.63;24.95;;;;;;;;;;5058287;28;20048;-67
2022/11/22 04:12:36;;;;;;;45.83;24.85;;;;;;;;;;5049001;28;20040;-67
2022/11/22 04:15:08;;;;;;;50.17;24.45;;;;;;;;;;5056046;28;21837;-67
2022/11/22 04:17:43;;;;;;;48.95;25.08;;;;;;;;;;5070049;28;20550;-67
2022/11/22 04:23:03;;;;;;;52.85;24.85;;;;;;;;;;5073303;28;20474;-67
2022/11/22 04:25:31;;;;;;;52.60;25.75;;;;;;;;;;5072584;28;20044;-67
2022/11/22 04:27:58;;;;;;;53.05;25.75;;;;;;;;;;5068637;28;20051;-68
2022/11/22 04:33:10;;;;;;;47.15;24.08;;;;;;;;;;5069932;28;20052;-68
2022/11/22 04:35:36;;;;;;;48.75;24.05;;;;;;;;;;5068840;28;20403;-68
2022/11/22 04:38:03;;;;;;;53.38;24.50;;;;;;;;;;5071778;28;20045;-68
2022/11/22 04:40:29;;;;;;;51.90;24.92;;;;;;;;;;5066946;28;20032;-68
2022/11/22 04:45:40;;;;;;;48.97;24.73;;;;;;;;;;5051812;28;20045;-68
2022/11/22 04:48:06;;;;;;;54.90;25.85;;;;;;;;;;5049782;28;20080;-68
2022/11/22 04:53:18;;;;;;;52.85;25.88;;;;;;;;;;5050051;28;20097;-68
2022/11/22 04:55:45;;;;;;;53.53;25.95;;;;;;;;;;5067203;28;20051;-68
2022/11/22 04:58:11;;;;;;;51.40;27.50;;;;;;;;;;5070817;28;20113;-68
2022/11/22 05:00:38;;;;;;;59.45;26.83;;;;;;;;;;5069548;28;20058;-68
2022/11/22 05:03:04;;;;;;;54.90;25.85;;;;;;;;;;5051361;28;20048;-68
2022/11/22 05:05:31;;;;;;;50.15;25.83;;;;;;;;;;5070162;28;20044;-70
2022/11/22 05:07:58;;;;;;;53.40;26.08;;;;;;;;;;5068308;28;20048;-68
2022/11/22 05:10:24;;;;;;;60.97;25.70;;;;;;;;;;5071825;28;20045;-68
2022/11/22 05:12:50;;;;;;;57.45;25.90;;;;;;;;;;5069594;28;20041;-68
2022/11/22 05:15:16;;;;;;;56.10;26.50;;;;;;;;;;5053152;28;20084;-67
2022/11/22 05:17:43;;;;;;;54.15;26.20;;;;;;;;;;5049202;28;20144;-68
2022/11/22 05:20:09;;;;;;;58.85;27.00;;;;;;;;;;5071071;28;20072;-68
2022/11/22 05:25:20;;;;;;;54.83;27.35;;;;;;;;;;5075737;28;20044;-68
2022/11/22 05:27:46;;;;;;;51.28;27.25;;;;;;;;;;5075046;28;20036;-68
2022/11/22 05:30:12;;;;;;;58.75;28.13;;;;;;;;;;5071541;28;20438;-68
2022/11/22 05:32:39;;;;;;;56.65;27.70;;;;;;;;;;5074026;28;20062;-68
2022/11/22 05:35:05;;;;;;;49.65;28.20;;;;;;;;;;5073419;28;20044;-68
2022/11/22 05:37:31;;;;;;;61.05;28.08;;;;;;;;;;5076929;28;20387;-68
2022/11/22 05:39:57;;;;;;;58.00;28.17;;;;;;;;;;5060094;28;20051;-68
2022/11/22 05:42:23;;;;;;;50.05;26.77;;;;;;;;;;5077581;28;20050;-68
2022/11/22 05:44:49;;;;;;;51.25;26.83;;;;;;;;;;5053308;28;20048;-67
2022/11/22 05:47:15;;;;;;;55.20;26.67;;;;;;;;;;5052937;28;20817;-68
2022/11/22 05:49:44;;;;;;;47.10;26.02;;;;;;;;;;5072503;28;20134;-68
2022/11/22 05:52:11;;;;;;;53.78;26.92;;;;;;;;;;5071132;28;20048;-68
2022/11/22 05:54:37;;;;;;;52.22;26.02;;;;;;;;;;5056939;28;20131;-68
2022/11/22 05:57:03;;;;;;;55.13;26.02;;;;;;;;;;5075925;28;20040;-68
2022/11/22 05:59:30;;;;;;;56.03;26.98;;;;;;;;;;5077075;28;21218;-68
2022/11/22 06:01:56;;;;;;;56.00;26.00;;;;;;;;;;5070576;28;20412;-68
2022/11/22 06:04:22;;;;;;;58.67;25.83;;;;;;;;;;5058053;28;20067;-68
2022/11/22 06:06:48;;;;;;;53.88;26.33;;;;;;;;;;5071194;28;20044;-67
2022/11/22 06:09:14;;;;;;;50.38;25.55;;;;;;;;;;5054771;28;20132;-68
2022/11/22 06:11:40;;;;;;;55.15;25.13;;;;;;;;;;5055256;28;20040;-68
2022/11/22 06:14:08;;;;;;;49.53;25.52;;;;;;;;;;5057532;28;20052;-68
2022/11/22 06:16:34;;;;;;;51.38;25.92;;;;;;;;;;5055009;28;20102;-68
2022/11/22 06:19:00;;;;;;;54.17;26.25;;;;;;;;;;5078101;28;20071;-67
2022/11/22 06:21:27;;;;;;;48.08;25.55;;;;;;;;;;5070005;28;20077;-68
2022/11/22 06:23:54;;;;;;;52.10;24.95;;;;;;;;;;5056025;28;20051;-68
2022/11/22 06:26:21;;;;;;;57.20;25.65;;;;;;;;;;5070677;28;20041;-68
2022/11/22 06:28:47;;;;;;;55.03;25.30;;;;;;;;;;5072159;28;20139;-67
2022/11/22 06:31:15;;;;;;;47.47;25.58;;;;;;;;;;5077168;28;20479;-68
2022/11/22 06:33:41;;;;;;;46.40;24.38;;;;;;;;;;5071105;28;20036;-68
2022/11/22 06:36:09;;;;;;;50.85;25.17;;;;;;;;;;5075651;28;20113;-68
2022/11/22 06:38:35;;;;;;;51.95;24.67;;;;;;;;;;5062690;28;20051;-67
2022/11/22 06:41:02;;;;;;;46.47;23.40;;;;;;;;;;5073331;28;20044;-66
2022/11/22 06:43:29;;;;;;;50.08;23.52;;;;;;;;;;5053358;28;20032;-67
2022/11/22 06:45:56;;;;;;;40.92;22.48;;;;;;;;;;5084460;28;20047;-68
2022/11/22 06:48:23;;;;;;;49.88;23.35;;;;;;;;;;5055720;28;20074;-67
2022/11/22 06:50:49;;;;;;;52.28;23.73;;;;;;;;;;5081622;28;20409;-67
2022/11/22 06:53:15;;;;;;;48.95;22.67;;;;;;;;;;5075795;28;20036;-67
2022/11/22 06:55:42;;;;;;;47.10;20.77;;;;;;;;;;5071854;28;20040;-67
2022/11/22 06:58:08;;;;;;;46.85;20.95;;;;;;;;;;5074973;28;20044;-68
2022/11/22 07:00:35;;;;;;;49.20;21.48;;;;;;;;;;5077811;28;20059;-68
2022/11/22 07:03:01;;;;;;;48.33;20.05;;;;;;;;;;5075294;28;20059;-68
2022/11/22 07:05:27;;;;;;;45.10;19.77;;;;;;;;;;5056086;28;20109;-67
2022/11/22 07:07:53;;;;;;;50.00;19.27;;;;;;;;;;5061590;28;20098;-68
2022/11/22 07:10:19;;;;;;;38.00;19.05;;;;;;;;;;5059466;28;20060;-68
2022/11/22 07:12:46;;;;;;;48.30;18.30;;;;;;;;;;5074715;28;20146;-67
2022/11/22 07:15:12;;;;;;;47.20;18.88;;;;;;;;;;5055879;28;20048;-68
2022/11/22 07:17:38;;;;;;;39.17;17.17;;;;;;;;;;5079132;28;20036;-68
2022/11/22 07:20:04;;;;;;;42.38;17.52;;;;;;;;;;5057469;28;20500;-68
2022/11/22 07:22:31;;;;;;;39.60;18.00;;;;;;;;;;5072439;28;20044;-68
2022/11/22 07:24:57;;;;;;;41.88;16.02;;;;;;;;;;5056747;28;20048;-67
2022/11/22 07:27:23;;;;;;;34.60;16.27;;;;;;;;;;5074399;28;20098;-67
2022/11/22 07:29:49;;;;;;;36.78;14.10;;;;;;;;;;5055462;28;20444;-67
2022/11/22 07:32:15;;;;;;;30.23;14.10;;;;;;;;;;5078491;28;20044;-67
2022/11/22 07:34:41;;;;;;;34.75;15.13;;;;;;;;;;5057424;28;20041;-68
2022/11/22 07:37:07;;;;;;;34.83;15.40;;;;;;;;;;5074645;28;20032;-67
2022/11/22 07:39:33;;;;;;;39.53;14.18;;;;;;;;;;5058079;28;20074;-68
2022/11/22 07:41:59;;;;;;;30.88;12.55;;;;;;;;;;5056990;28;20044;-68
2022/11/22 07:44:26;;;;;;;33.67;13.23;;;;;;;;;;5056941;28;20044;-68
2022/11/22 07:46:52;;;;;;;35.42;14.43;;;;;;;;;;5079491;28;20044;-68
2022/11/22 07:49:18;;;;;;;25.50;12.30;;;;;;;;;;5078196;28;20048;-68
2022/11/22 07:51:45;;;;;;;31.98;13.13;;;;;;;;;;5056179;28;20102;-67
2022/11/22 07:54:12;;;;;;;35.95;12.50;;;;;;;;;;5077158;28;20049;-67
2022/11/22 07:56:38;;;;;;;31.23;11.77;;;;;;;;;;5053271;28;21645;-67
2022/11/22 07:59:05;;;;;;;25.85;11.13;;;;;;;;;;5065467;28;20076;-78
2022/11/22 08:01:31;;;;;;;33.47;11.15;;;;;;;;;;5075667;28;20037;-67
2022/11/22 08:03:57;;;;;;;30.75;11.13;;;;;;;;;;5049461;28;20209;-67
2022/11/22 08:06:23;;;;;;;35.53;11.52;;;;;;;;;;5074445;28;20369;-68
2022/11/22 08:08:49;;;;;;;29.27;9.82;;;;;;;;;;5052418;28;20332;-67
2022/11/22 08:11:16;;;;;;;30.33;10.82;;;;;;;;;;5071711;28;20384;-67
2022/11/22 08:13:43;;;;;;;26.05;10.50;;;;;;;;;;5074423;28;20040;-68
2022/11/22 08:16:12;;;;;;;31.65;10.05;;;;;;;;;;5074418;28;20044;-67
2022/11/22 08:18:38;;;;;;;29.42;9.93;;;;;;;;;;5049745;28;20037;-68
2022/11/22 08:21:07;;;;;;;29.60;9.80;;;;;;;;;;5077076;28;20048;-67
2022/11/22 08:23:34;;;;;;;29.45;9.38;;;;;;;;;;5075865;28;20041;-67
2022/11/22 08:26:00;;;;;;;22.73;8.00;;;;;;;;;;5053297;28;20533;-67
2022/11/22 08:28:26;;;;;;;16.40;7.45;;;;;;;;;;5070834;28;20041;-67
2022/11/22 08:30:58;;;;;;;23.55;8.30;;;;;;;;;;5053078;28;20045;-67
2022/11/22 08:33:24;;;;;;;30.05;7.38;;;;;;;;;;5052706;28;20403;-67
2022/11/22 08:35:50;;;;;;;21.48;7.95;;;;;;;;;;5071675;28;20411;-67
2022/11/22 08:38:16;;;;;;;24.67;8.88;;;;;;;;;;5071242;28;20483;-67
2022/11/22 08:40:42;;;;;;;18.75;7.28;;;;;;;;;;5072473;28;20051;-67
2022/11/22 08:43:09;;;;;;;23.70;7.00;;;;;;;;;;5074767;28;20047;-67
2022/11/22 08:45:36;;;;;;;23.30;7.07;;;;;;;;;;5074257;28;20066;-66
2022/11/22 08:48:02;;;;;;;15.85;6.53;;;;;;;;;;5055176;28;20047;-66
2022/11/22 08:50:28;;;;;;;22.60;6.80;;;;;;;;;;5083681;28;20050;-67
2022/11/22 08:52:54;;;;;;;17.42;6.90;;;;;;;;;;5075341;28;20071;-66
2022/11/22 08:55:20;;;;;;;21.95;7.20;;;;;;;;;;5089720;28;20036;-66
2022/11/22 08:57:46;;;;;;;17.88;6.43;;;;;;;;;;5072628;28;20050;-68
2022/11/22 09:00:13;;;;;;;21.48;6.90;;;;;;;;;;5076385;28;20395;-66
2022/11/22 09:02:39;;;;;;;21.02;5.78;;;;;;;;;;5078274;28;20099;-66
2022/11/22 09:05:05;;;;;;;12.45;4.90;;;;;;;;;;5076505;28;20067;-66
2022/11/22 09:07:31;;;;;;;18.30;5.70;;;;;;;;;;5059714;28;20468;-66
2022/11/22 09:09:58;;;;;;;18.33;5.95;;;;;;;;;;5078680;28;20036;-66
2022/11/22 09:12:24;;;;;;;16.42;4.70;;;;;;;;;;5079358;28;20039;-66
2022/11/22 09:14:50;;;;;;;13.68;5.18;;;;;;;;;;5074431;28;20671;-66
2022/11/22 09:17:16;;;;;;;13.48;4.65;;;;;;;;;;5078702;28;20388;-66
2022/11/22 09:19:43;;;;;;;20.02;4.85;;;;;;;;;;5082603;28;20166;-66
2022/11/22 09:22:09;;;;;;;21.02;5.68;;;;;;;;;;5082148;28;20040;-67
2022/11/22 09:24:35;;;;;;;17.40;5.47;;;;;;;;;;5081908;28;20052;-66
2022/11/22 09:27:01;;;;;;;16.02;5.35;;;;;;;;;;5079063;28;20072;-66
2022/11/22 09:29:27;;;;;;;18.17;4.90;;;;;;;;;;5079272;28;20036;-66
2022/11/22 09:31:54;;;;;;;19.08;5.55;;;;;;;;;;5062193;28;20124;-66
2022/11/22 09:34:21;;;;;;;15.10;5.32;;;;;;;;;;5046203;28;20040;-66
2022/11/22 09:36:47;;;;;;;15.70;5.50;;;;;;;;;;5063234;28;20558;-66
2022/11/22 09:39:13;;;;;;;11.25;4.25;;;;;;;;;;5081758;28;20075;-66
2022/11/22 09:41:57;;;;;;;15.50;4.70;;;;;;;;;;5078577;28;20052;-66
2022/11/22 09:44:31;;;;;;;18.55;5.47;;;;;;;;;;5080116;28;20056;-67
2022/11/22 09:46:57;;;;;;;;;;;;;;;;;;5065456;28;20514;-66
2022/11/22 09:49:34;;;;;;;24.73;6.60;;;;;;;;;;5081134;28;19975;-66
2022/11/22 09:52:07;;;;;;;18.02;5.82;;;;;;;;;;5079024;28;20051;-66
2022/11/22 09:54:38;;;;;;;15.75;5.10;;;;;;;;;;5080376;28;20458;-66
2022/11/22 09:57:08;;;;;;;16.98;5.22;;;;;;;;;;5063021;28;20109;-66
2022/11/22 09:59:36;;;;;;;18.38;6.22;;;;;;;;;;5081281;28;20421;-66
2022/11/22 10:02:06;;;;;;;19.23;5.28;;;;;;;;;;5063238;28;20143;-67
2022/11/22 10:04:38;;;;;;;19.02;6.47;;;;;;;;;;5079151;28;20068;-66
2022/11/22 10:07:07;;;;;;;9.82;4.32;;;;;;;;;;5061326;28;20051;-67
2022/11/22 10:09:37;;;;;;;16.63;5.13;;;;;;;;;;5057220;28;20041;-66
2022/11/22 10:12:10;;;;;;;10.95;3.83;;;;;;;;;;5059540;28;20047;-66
2022/11/22 10:14:43;;;;;;;8.85;3.58;;;;;;;;;;5081594;28;20059;-66
2022/11/22 10:17:19;;;;;;;13.88;4.13;;;;;;;;;;5082659;28;20059;-66
2022/11/22 10:19:49;;;;;;;14.70;4.10;;;;;;;;;;5080645;28;20036;-66
2022/11/22 10:22:16;;;;;;;14.27;3.63;;;;;;;;;;5077888;28;20032;-67
2022/11/22 10:24:42;;;;;;;15.68;4.07;;;;;;;;;;5079475;28;20067;-66
2022/11/22 10:27:13;;;;;;;12.82;3.95;;;;;;;;;;5078947;28;20044;-66
2022/11/22 10:29:52;;;;;;;11.07;4.03;;;;;;;;;;5078022;28;20097;-66
2022/11/22 10:32:22;;;;;;;14.75;3.97;;;;;;;;;;5080567;28;20091;-66
2022/11/22 10:34:52;;;;;;;13.85;3.63;;;;;;;;;;5063008;28;20402;-66
2022/11/22 10:37:37;;;;;;;13.85;3.97;;;;;;;;;;5080974;28;20040;-66
2022/11/22 10:40:05;;;;;;;10.05;3.72;;;;;;;;;;5080428;28;20044;-66
2022/11/22 10:42:39;;;;;;;7.03;2.92;;;;;;;;;;5063209;28;20044;-66
2022/11/22 10:45:05;;;;;;;11.93;3.25;;;;;;;;;;5080235;28;20048;-66
2022/11/22 10:47:32;;;;;;;11.18;3.45;;;;;;;;;;5059589;28;20131;-66
2022/11/22 10:50:01;;;;;;;10.85;3.08;;;;;;;;;;5078540;28;20045;-66
2022/11/22 10:52:32;;;;;;;12.80;3.33;;;;;;;;;;5076954;28;20080;-66
2022/11/22 10:55:04;;;;;;;13.93;3.20;;;;;;;;;;5077855;28;20063;-66
2022/11/22 10:57:32;;;;;;;11.57;3.72;;;;;;;;;;5078595;28;20122;-66
2022/11/22 11:00:01;;;;;;;6.55;3.53;;;;;;;;;;5083204;28;20048;-66
2022/11/22 11:02:33;;;;;;;11.38;3.47;;;;;;;;;;5081648;28;20683;-66
2022/11/22 11:05:00;;;;;;;10.65;3.30;;;;;;;;;;5075986;28;20123;-66
2022/11/22 11:07:27;;;;;;;14.80;3.60;;;;;;;;;;5069480;28;20044;-66
2022/11/22 11:09:54;;;;;;;15.68;4.05;;;;;;;;;;5053210;28;20565;-66
2022/11/22 11:12:25;;;;;;;11.45;3.78;;;;;;;;;;5072861;28;20128;-66
2022/11/22 11:14:54;;;;;;;10.65;3.53;;;;;;;;;;5071281;28;20117;-66
2022/11/22 11:17:24;;;;;;;12.50;3.63;;;;;;;;;;5053452;28;20177;-66
2022/11/22 11:19:52;;;;;;;12.73;3.30;;;;;;;;;;5069723;28;20111;-66
2022/11/22 11:22:21;;;;;;;11.38;3.65;;;;;;;;;;5050628;28;21563;-66
2022/11/22 11:24:48;;;;;;;10.23;3.30;;;;;;;;;;5072181;28;20127;-64
2022/11/22 11:27:14;;;;;;;12.57;3.10;;;;;;;;;;5076161;28;20484;-66
2022/11/22 11:29:43;;;;;;;8.98;3.25;;;;;;;;;;5054443;28;20052;-65
2022/11/22 11:32:13;;;;;;;10.50;2.35;;;;;;;;;;5056914;28;20634;-66
2022/11/22 11:34:41;;;;;;;9.95;3.08;;;;;;;;;;5057325;28;20052;-66
2022/11/22 11:37:12;;;;;;;11.35;3.25;;;;;;;;;;5055393;28;20429;-66
2022/11/22 11:39:38;;;;;;;8.68;2.50;;;;;;;;;;5053035;28;20063;-66
2022/11/22 11:42:21;;;;;;;9.98;3.28;;;;;;;;;;5072861;28;20036;-66
2022/11/22 11:44:47;;;;;;;6.95;2.70;;;;;;;;;;5053259;28;20488;-66
2022/11/22 11:47:18;;;;;;;6.60;2.08;;;;;;;;;;5074694;28;20036;-66
2022/11/22 11:49:49;;;;;;;9.63;2.15;;;;;;;;;;5054512;28;20055;-66
2022/11/22 11:52:19;;;;;;;8.52;2.92;;;;;;;;;;5072474;28;20052;-66
2022/11/22 11:54:47;;;;;;;9.27;2.08;;;;;;;;;;5056802;28;20052;-66
2022/11/22 11:57:13;;;;;;;10.32;2.92;;;;;;;;;;5071694;28;20032;-67
2022/11/22 11:59:39;;;;;;;10.18;2.80;;;;;;;;;;5079891;28;20458;-71
2022/11/22 12:02:15;;;;;;;12.82;3.03;;;;;;;;;;5058946;28;20052;-66
2022/11/22 12:04:48;;;;;;;9.48;2.05;;;;;;;;;;5076992;28;20396;-66
2022/11/22 12:07:18;;;;;;;10.18;2.78;;;;;;;;;;5076325;28;20076;-66
2022/11/22 12:09:46;;;;;;;8.95;3.08;;;;;;;;;;5071688;28;20052;-66
2022/11/22 12:12:31;;;;;;;6.57;2.17;;;;;;;;;;5073339;28;20391;-66
2022/11/22 12:15:03;;;;;;;8.20;2.05;;;;;;;;;;5061075;28;20048;-66
2022/11/22 12:17:32;;;;;;;8.40;2.60;;;;;;;;;;5083807;28;20050;-66
2022/11/22 12:20:07;;;;;;;8.88;2.03;;;;;;;;;;5081483;28;20044;-66
2022/11/22 12:22:41;;;;;;;6.85;2.22;;;;;;;;;;5079128;28;20465;-66
2022/11/22 12:25:07;;;;;;;;;;;;;;;;;;5058843;28;20032;-66
2022/11/22 12:27:33;;;;;;;9.00;1.77;;;;;;;;;;5064552;28;19927;-66
2022/11/22 12:29:59;;;;;;;7.55;1.80;;;;;;;;;;5076030;28;20036;-66
2022/11/22 12:32:28;;;;;;;10.65;2.03;;;;;;;;;;5078071;28;20132;-66
2022/11/22 12:34:57;;;;;;;10.50;3.03;;;;;;;;;;5062201;28;20127;-66
2022/11/22 12:37:26;;;;;;;11.70;2.10;;;;;;;;;;5076923;28;20368;-66
2022/11/22 12:39:53;;;;;;;10.25;3.13;;;;;;;;;;5059450;28;20036;-66
2022/11/22 12:42:23;;;;;;;10.80;2.20;;;;;;;;;;5080988;28;20062;-67
2022/11/22 12:44:57;;;;;;;12.77;1.48;;;;;;;;;;5077281;28;20040;-66
2022/11/22 12:47:25;;;;;;;7.60;2.38;;;;;;;;;;5080490;28;20053;-66
2022/11/22 12:49:53;;;;;;;7.13;2.00;;;;;;;;;;5060719;28;20051;-67
2022/11/22 12:52:27;;;;;;;7.82;1.70;;;;;;;;;;5066751;28;20523;-67
2022/11/22 12:54:53;;;;;;;;;;;;;;;;;;5067269;28;20048;-67
2022/11/22 12:57:23;;;;;;;9.00;2.03;;;;;;;;;;5064331;28;19924;-67
2022/11/22 12:59:54;;;;;;;12.10;2.10;;;;;;;;;;5089742;28;20167;-67
2022/11/22 13:02:24;;;;;;;8.13;1.88;;;;;;;;;;5089937;28;20035;-66
2022/11/22 13:04:55;;;;;;;10.10;2.03;;;;;;;;;;5066556;28;20109;-67
2022/11/22 13:07:27;;;;;;;7.65;2.38;;;;;;;;;;5082359;28;20461;-67
2022/11/22 13:09:58;;;;;;;9.25;2.38;;;;;;;;;;5086245;28;20036;-66
2022/11/22 13:12:29;;;;;;;8.82;2.50;;;;;;;;;;5083845;28;20125;-66
2022/11/22 13:14:57;;;;;;;10.43;3.28;;;;;;;;;;5086517;28;20048;-66
2022/11/22 13:17:24;;;;;;;10.05;2.30;;;;;;;;;;5072208;28;20067;-66
2022/11/22 13:19:53;;;;;;;11.23;2.67;;;;;;;;;;5081262;28;20502;-66
2022/11/22 13:22:26;;;;;;;9.25;2.17;;;;;;;;;;5062849;28;20518;-66
2022/11/22 13:25:02;;;;;;;16.80;2.30;;;;;;;;;;5063119;28;20043;-66
2022/11/22 13:27:34;;;;;;;9.63;2.70;;;;;;;;;;5079990;28;20372;-66
2022/11/22 13:30:01;;;;;;;9.80;2.00;;;;;;;;;;5077382;28;20040;-66
2022/11/22 13:32:30;;;;;;;9.88;1.85;;;;;;;;;;5079334;28;20469;-65
2022/11/22 13:35:11;;;;;;;8.25;2.05;;;;;;;;;;5081168;28;20094;-66
2022/11/22 13:37:40;;;;;;;6.25;1.83;;;;;;;;;;5080600;28;20071;-66
2022/11/22 13:40:11;;;;;;;10.63;2.38;;;;;;;;;;5082456;28;20051;-67
2022/11/22 13:42:37;;;;;;;6.72;1.88;;;;;;;;;;5080886;28;20186;-66
2022/11/22 13:45:06;;;;;;;9.38;2.63;;;;;;;;;;5081839;28;20028;-66
2022/11/22 13:47:40;;;;;;;7.18;2.28;;;;;;;;;;5078686;28;20040;-65
2022/11/22 13:50:24;;;;;;;12.13;2.30;;;;;;;;;;5080918;28;20055;-66
2022/11/22 13:52:51;;;;;;;8.27;2.53;;;;;;;;;;5047673;28;20044;-66
2022/11/22 13:55:26;;;;;;;8.77;2.17;;;;;;;;;;5065049;28;20044;-66
2022/11/22 13:57:52;;;;;;;8.70;2.28;;;;;;;;;;5046253;28;20040;-66
2022/11/22 14:00:20;;;;;;;5.00;2.17;;;;;;;;;;5064603;28;20405;-66
2022/11/22 14:02:48;;;;;;;9.93;1.70;;;;;;;;;;5063204;28;20041;-66
2022/11/22 14:05:21;;;;;;;15.45;2.05;;;;;;;;;;5064774;28;20051;-66
2022/11/22 14:07:51;;;;;;;8.05;2.28;;;;;;;;;;5041776;28;20090;-65
2022/11/22 14:10:26;;;;;;;9.73;1.85;;;;;;;;;;5062503;28;20537;-66
2022/11/22 14:13:05;;;;;;;8.88;2.13;;;;;;;;;;5060743;28;20068;-65
2022/11/22 14:15:45;;;;;;;10.27;1.92;;;;;;;;;;5064576;28;20442;-65
2022/11/22 14:18:36;;;;;;;7.25;1.80;;;;;;;;;;5064288;28;20465;-65
2022/11/22 14:21:06;;;;;;;6.35;1.70;;;;;;;;;;5061275;28;20055;-65
2022/11/22 14:23:48;;;;;;;8.82;1.67;;;;;;;;;;5038724;28;20044;-66
2022/11/22 14:26:25;;;;;;;9.02;1.98;;;;;;;;;;5064828;28;20047;-65
2022/11/22 14:29:03;;;;;;;10.77;2.05;;;;;;;;;;5064761;28;20055;-66
2022/11/22 14:31:31;;;;;;;9.30;1.83;;;;;;;;;;5065627;28;20533;-66
2022/11/22 14:34:18;;;;;;;14.18;2.47;;;;;;;;;;5066542;28;20056;-66
2022/11/22 14:36:45;;;;;;;7.93;2.60;;;;;;;;;;5066052;28;20378;-66
2022/11/22 14:39:30;;;;;;;6.15;1.73;;;;;;;;;;5066949;28;20036;-66
2022/11/22 14:41:56;;;;;;;11.57;1.95;;;;;;;;;;5048183;28;20427;-66
2022/11/22 14:44:28;;;;;;;6.43;1.63;;;;;;;;;;5067323;28;20043;-66